sensor_id;sensor_type;location;lat;lon;timestamp;temperature;humidity
49148;DHT22;41980;45.550;12.070;2022-09-09T00:04:34;21.80;75.80
49148;DHT22;41980;45.550;12.070;2022-09-09T00:10:39;21.80;76.10
49148;DHT22;41980;45.550;12.070;2022-09-09T00:16:49;21.80;76.20
49148;DHT22;41980;45.550;12.070;2022-09-09T00:22:59;21.70;75.90
49148;DHT22;41980;45.550;12.070;2022-09-09T00:35:17;21.80;76.10
49148;DHT22;41980;45.550;12.070;2022-09-09T01:18:09;21.40;76.60
49148;DHT22;41980;45.550;12.070;2022-09-09T01:30:39;21.30;77.50
49148;DHT22;41980;45.550;12.070;2022-09-09T01:36:52;21.20;77.50
49148;DHT22;41980;45.550;12.070;2022-09-09T01:42:56;21.10;77.20
49148;DHT22;41980;45.550;12.070;2022-09-09T01:48:59;21.10;77.30
49148;DHT22;41980;45.550;12.070;2022-09-09T01:55:04;21.00;77.60
49148;DHT22;41980;45.550;12.070;2022-09-09T02:01:16;20.90;78.10
49148;DHT22;41980;45.550;12.070;2022-09-09T02:13:29;20.90;77.90
49148;DHT22;41980;45.550;12.070;2022-09-09T02:19:37;20.90;78.60
49148;DHT22;41980;45.550;12.070;2022-09-09T02:25:54;20.90;77.80
49148;DHT22;41980;45.550;12.070;2022-09-09T02:32:03;20.90;78.00
49148;DHT22;41980;45.550;12.070;2022-09-09T02:38:13;20.80;78.60
49148;DHT22;41980;45.550;12.070;2022-09-09T02:44:25;20.80;78.30
49148;DHT22;41980;45.550;12.070;2022-09-09T02:50:34;20.70;78.40
49148;DHT22;41980;45.550;12.070;2022-09-09T02:56:39;20.70;78.40
49148;DHT22;41980;45.550;12.070;2022-09-09T03:02:44;20.70;80.20
49148;DHT22;41980;45.550;12.070;2022-09-09T03:08:46;20.70;78.50
49148;DHT22;41980;45.550;12.070;2022-09-09T03:14:55;20.70;78.30
49148;DHT22;41980;45.550;12.070;2022-09-09T03:20:59;20.70;78.90
49148;DHT22;41980;45.550;12.070;2022-09-09T03:27:02;20.60;78.70
49148;DHT22;41980;45.550;12.070;2022-09-09T03:33:05;20.70;79.60
49148;DHT22;41980;45.550;12.070;2022-09-09T03:39:08;20.70;78.70
49148;DHT22;41980;45.550;12.070;2022-09-09T03:45:11;20.60;78.30
49148;DHT22;41980;45.550;12.070;2022-09-09T03:51:16;20.70;78.90
49148;DHT22;41980;45.550;12.070;2022-09-09T03:57:19;20.60;78.50
49148;DHT22;41980;45.550;12.070;2022-09-09T04:03:22;20.60;78.50
49148;DHT22;41980;45.550;12.070;2022-09-09T04:09:26;20.60;78.60
49148;DHT22;41980;45.550;12.070;2022-09-09T04:15:28;20.60;78.50
49148;DHT22;41980;45.550;12.070;2022-09-09T04:21:32;20.70;78.50
49148;DHT22;41980;45.550;12.070;2022-09-09T04:27:36;20.60;78.70
49148;DHT22;41980;45.550;12.070;2022-09-09T04:33:38;20.60;78.70
49148;DHT22;41980;45.550;12.070;2022-09-09T04:39:43;20.70;78.90
49148;DHT22;41980;45.550;12.070;2022-09-09T04:45:48;20.70;78.40
49148;DHT22;41980;45.550;12.070;2022-09-09T04:51:50;20.70;78.30
49148;DHT22;41980;45.550;12.070;2022-09-09T04:57:53;20.80;78.70
49148;DHT22;41980;45.550;12.070;2022-09-09T05:03:56;20.90;78.20
49148;DHT22;41980;45.550;12.070;2022-09-09T05:09:58;20.90;78.10
49148;DHT22;41980;45.550;12.070;2022-09-09T05:16:01;21.00;78.10
49148;DHT22;41980;45.550;12.070;2022-09-09T05:22:03;21.20;78.20
49148;DHT22;41980;45.550;12.070;2022-09-09T05:28:15;21.40;78.10
49148;DHT22;41980;45.550;12.070;2022-09-09T05:34:17;21.60;77.40
49148;DHT22;41980;45.550;12.070;2022-09-09T05:40:19;22.10;77.10
49148;DHT22;41980;45.550;12.070;2022-09-09T05:46:24;23.70;75.50
49148;DHT22;41980;45.550;12.070;2022-09-09T05:52:29;25.10;72.70
49148;DHT22;41980;45.550;12.070;2022-09-09T05:58:34;26.00;70.70
49148;DHT22;41980;45.550;12.070;2022-09-09T06:04:39;26.30;70.20
49148;DHT22;41980;45.550;12.070;2022-09-09T06:10:43;27.00;69.40
49148;DHT22;41980;45.550;12.070;2022-09-09T06:16:45;28.30;67.80
49148;DHT22;41980;45.550;12.070;2022-09-09T06:22:53;27.80;66.20
49148;DHT22;41980;45.550;12.070;2022-09-09T06:28:56;27.40;67.50
49148;DHT22;41980;45.550;12.070;2022-09-09T06:35:00;26.00;69.20
49148;DHT22;41980;45.550;12.070;2022-09-09T06:41:05;25.30;69.90
49148;DHT22;41980;45.550;12.070;2022-09-09T06:47:08;24.80;70.00
49148;DHT22;41980;45.550;12.070;2022-09-09T06:53:11;24.20;70.70
49148;DHT22;41980;45.550;12.070;2022-09-09T06:59:13;23.80;71.50
49148;DHT22;41980;45.550;12.070;2022-09-09T07:05:16;23.60;71.90
49148;DHT22;41980;45.550;12.070;2022-09-09T07:11:23;24.20;71.60
49148;DHT22;41980;45.550;12.070;2022-09-09T07:17:27;24.70;71.10
49148;DHT22;41980;45.550;12.070;2022-09-09T07:23:31;26.00;68.80
49148;DHT22;41980;45.550;12.070;2022-09-09T07:29:33;26.80;67.10
49148;DHT22;41980;45.550;12.070;2022-09-09T07:35:36;27.30;66.40
49148;DHT22;41980;45.550;12.070;2022-09-09T07:41:42;26.50;66.50
49148;DHT22;41980;45.550;12.070;2022-09-09T07:47:45;25.90;68.50
49148;DHT22;41980;45.550;12.070;2022-09-09T07:53:52;26.90;67.90
49148;DHT22;41980;45.550;12.070;2022-09-09T07:59:55;28.00;65.90
49148;DHT22;41980;45.550;12.070;2022-09-09T08:06:02;29.40;64.30
49148;DHT22;41980;45.550;12.070;2022-09-09T08:12:06;28.50;63.40
49148;DHT22;41980;45.550;12.070;2022-09-09T08:18:09;27.50;64.80
49148;DHT22;41980;45.550;12.070;2022-09-09T08:24:13;26.60;65.80
49148;DHT22;41980;45.550;12.070;2022-09-09T08:30:20;26.10;66.80
49148;DHT22;41980;45.550;12.070;2022-09-09T08:36:24;26.30;66.60
49148;DHT22;41980;45.550;12.070;2022-09-09T08:54:46;29.20;61.50
49148;DHT22;41980;45.550;12.070;2022-09-09T09:07:16;30.60;59.80
49148;DHT22;41980;45.550;12.070;2022-09-09T09:19:31;31.50;57.70
49148;DHT22;41980;45.550;12.070;2022-09-09T09:25:38;32.00;56.60
49148;DHT22;41980;45.550;12.070;2022-09-09T09:31:47;29.50;58.10
49148;DHT22;41980;45.550;12.070;2022-09-09T09:37:51;27.70;61.20
49148;DHT22;41980;45.550;12.070;2022-09-09T09:43:54;26.80;62.60
49148;DHT22;41980;45.550;12.070;2022-09-09T09:49:59;26.20;63.70
49148;DHT22;41980;45.550;12.070;2022-09-09T09:56:12;26.00;64.20
49148;DHT22;41980;45.550;12.070;2022-09-09T10:02:20;26.90;63.90
49148;DHT22;41980;45.550;12.070;2022-09-09T10:08:43;27.70;61.90
49148;DHT22;41980;45.550;12.070;2022-09-09T10:33:22;29.10;57.80
49148;DHT22;41980;45.550;12.070;2022-09-09T10:52:02;27.50;60.30
49148;DHT22;41980;45.550;12.070;2022-09-09T10:58:13;27.50;60.40
49148;DHT22;41980;45.550;12.070;2022-09-09T11:22:55;27.40;60.20
49148;DHT22;41980;45.550;12.070;2022-09-09T11:29:14;27.40;60.60
49148;DHT22;41980;45.550;12.070;2022-09-09T11:41:35;27.40;59.20
49148;DHT22;41980;45.550;12.070;2022-09-09T11:47:39;27.40;60.10
49148;DHT22;41980;45.550;12.070;2022-09-09T11:59:52;26.80;60.50
49148;DHT22;41980;45.550;12.070;2022-09-09T12:05:55;26.80;61.10
49148;DHT22;41980;45.550;12.070;2022-09-09T12:18:07;26.90;61.80
49148;DHT22;41980;45.550;12.070;2022-09-09T12:24:24;27.00;61.80
49148;DHT22;41980;45.550;12.070;2022-09-09T12:36:37;26.90;61.90
49148;DHT22;41980;45.550;12.070;2022-09-09T12:42:40;26.90;62.20
49148;DHT22;41980;45.550;12.070;2022-09-09T12:48:42;26.90;61.90
49148;DHT22;41980;45.550;12.070;2022-09-09T12:54:47;26.70;62.00
49148;DHT22;41980;45.550;12.070;2022-09-09T13:00:51;26.70;62.20
49148;DHT22;41980;45.550;12.070;2022-09-09T13:07:06;26.70;62.20
49148;DHT22;41980;45.550;12.070;2022-09-09T13:13:15;26.60;62.00
49148;DHT22;41980;45.550;12.070;2022-09-09T13:19:17;26.60;61.60
49148;DHT22;41980;45.550;12.070;2022-09-09T13:25:22;26.50;62.20
49148;DHT22;41980;45.550;12.070;2022-09-09T13:31:30;26.30;62.90
49148;DHT22;41980;45.550;12.070;2022-09-09T13:37:35;25.50;65.20
49148;DHT22;41980;45.550;12.070;2022-09-09T13:49:49;23.30;69.00
49148;DHT22;41980;45.550;12.070;2022-09-09T13:55:52;22.80;69.80
49148;DHT22;41980;45.550;12.070;2022-09-09T14:01:54;21.50;73.50
49148;DHT22;41980;45.550;12.070;2022-09-09T14:07:57;21.50;75.00
49148;DHT22;41980;45.550;12.070;2022-09-09T14:13:59;22.00;71.70
49148;DHT22;41980;45.550;12.070;2022-09-09T14:20:04;22.40;71.50
49148;DHT22;41980;45.550;12.070;2022-09-09T14:26:10;22.90;70.60
49148;DHT22;41980;45.550;12.070;2022-09-09T14:32:12;23.20;70.30
49148;DHT22;41980;45.550;12.070;2022-09-09T14:38:14;23.30;69.80
49148;DHT22;41980;45.550;12.070;2022-09-09T14:44:17;23.60;70.20
49148;DHT22;41980;45.550;12.070;2022-09-09T14:50:20;23.90;70.00
49148;DHT22;41980;45.550;12.070;2022-09-09T14:56:24;24.00;70.20
49148;DHT22;41980;45.550;12.070;2022-09-09T15:02:28;24.00;70.20
49148;DHT22;41980;45.550;12.070;2022-09-09T15:08:31;23.90;70.70
49148;DHT22;41980;45.550;12.070;2022-09-09T15:14:33;24.00;70.70
49148;DHT22;41980;45.550;12.070;2022-09-09T15:20:37;23.90;70.90
49148;DHT22;41980;45.550;12.070;2022-09-09T15:26:40;23.90;71.50
49148;DHT22;41980;45.550;12.070;2022-09-09T15:32:42;23.80;71.30
49148;DHT22;41980;45.550;12.070;2022-09-09T15:38:44;23.80;71.10
49148;DHT22;41980;45.550;12.070;2022-09-09T15:44:47;23.60;71.30
49148;DHT22;41980;45.550;12.070;2022-09-09T15:51:02;23.60;71.10
49148;DHT22;41980;45.550;12.070;2022-09-09T15:57:07;23.70;71.20
49148;DHT22;41980;45.550;12.070;2022-09-09T16:03:10;23.70;71.40
49148;DHT22;41980;45.550;12.070;2022-09-09T16:09:15;23.70;71.50
49148;DHT22;41980;45.550;12.070;2022-09-09T16:15:17;23.70;72.10
49148;DHT22;41980;45.550;12.070;2022-09-09T16:21:26;23.70;71.30
49148;DHT22;41980;45.550;12.070;2022-09-09T16:27:31;23.70;71.50
49148;DHT22;41980;45.550;12.070;2022-09-09T16:33:33;23.70;72.00
49148;DHT22;41980;45.550;12.070;2022-09-09T16:39:35;23.60;71.80
49148;DHT22;41980;45.550;12.070;2022-09-09T16:45:41;23.50;72.20
49148;DHT22;41980;45.550;12.070;2022-09-09T16:51:47;23.50;72.40
49148;DHT22;41980;45.550;12.070;2022-09-09T16:57:50;23.50;72.20
49148;DHT22;41980;45.550;12.070;2022-09-09T17:03:54;23.40;72.20
49148;DHT22;41980;45.550;12.070;2022-09-09T17:09:57;23.30;72.30
49148;DHT22;41980;45.550;12.070;2022-09-09T17:16:03;23.20;72.50
49148;DHT22;41980;45.550;12.070;2022-09-09T17:22:05;23.10;72.50
49148;DHT22;41980;45.550;12.070;2022-09-09T17:28:07;23.00;72.70
49148;DHT22;41980;45.550;12.070;2022-09-09T17:34:10;23.00;72.80
49148;DHT22;41980;45.550;12.070;2022-09-09T17:40:12;22.80;73.00
49148;DHT22;41980;45.550;12.070;2022-09-09T17:46:19;22.70;72.90
49148;DHT22;41980;45.550;12.070;2022-09-09T17:52:23;22.50;73.10
49148;DHT22;41980;45.550;12.070;2022-09-09T17:58:25;22.50;73.40
49148;DHT22;41980;45.550;12.070;2022-09-09T18:04:27;22.20;73.70
49148;DHT22;41980;45.550;12.070;2022-09-09T18:10:30;22.10;74.20
49148;DHT22;41980;45.550;12.070;2022-09-09T18:16:33;22.00;74.50
49148;DHT22;41980;45.550;12.070;2022-09-09T18:22:36;22.00;74.90
49148;DHT22;41980;45.550;12.070;2022-09-09T18:28:39;22.00;74.70
49148;DHT22;41980;45.550;12.070;2022-09-09T18:34:42;22.00;74.50
49148;DHT22;41980;45.550;12.070;2022-09-09T18:40:44;22.00;74.60
49148;DHT22;41980;45.550;12.070;2022-09-09T18:46:47;22.00;74.70
49148;DHT22;41980;45.550;12.070;2022-09-09T18:52:49;21.90;75.50
49148;DHT22;41980;45.550;12.070;2022-09-09T18:58:53;21.90;75.50
49148;DHT22;41980;45.550;12.070;2022-09-09T19:04:56;21.80;74.80
49148;DHT22;41980;45.550;12.070;2022-09-09T19:11:01;21.80;74.90
49148;DHT22;41980;45.550;12.070;2022-09-09T19:17:03;21.70;74.90
49148;DHT22;41980;45.550;12.070;2022-09-09T19:23:05;21.60;75.00
49148;DHT22;41980;45.550;12.070;2022-09-09T19:29:08;21.60;75.00
49148;DHT22;41980;45.550;12.070;2022-09-09T19:35:11;21.50;75.50
49148;DHT22;41980;45.550;12.070;2022-09-09T19:41:18;21.40;75.90
49148;DHT22;41980;45.550;12.070;2022-09-09T19:47:21;21.30;75.80
49148;DHT22;41980;45.550;12.070;2022-09-09T19:53:24;21.20;75.70
49148;DHT22;41980;45.550;12.070;2022-09-09T19:59:27;21.20;75.80
49148;DHT22;41980;45.550;12.070;2022-09-09T20:05:30;21.20;75.90
49148;DHT22;41980;45.550;12.070;2022-09-09T20:11:33;21.10;76.10
49148;DHT22;41980;45.550;12.070;2022-09-09T20:17:35;21.00;75.90
49148;DHT22;41980;45.550;12.070;2022-09-09T20:23:38;21.00;76.50
49148;DHT22;41980;45.550;12.070;2022-09-09T20:29:41;20.90;76.30
49148;DHT22;41980;45.550;12.070;2022-09-09T20:35:44;20.80;76.40
49148;DHT22;41980;45.550;12.070;2022-09-09T20:41:46;20.70;76.30
49148;DHT22;41980;45.550;12.070;2022-09-09T20:47:48;20.70;76.50
49148;DHT22;41980;45.550;12.070;2022-09-09T20:53:54;20.60;76.40
49148;DHT22;41980;45.550;12.070;2022-09-09T20:59:57;20.50;76.60
49148;DHT22;41980;45.550;12.070;2022-09-09T21:05:59;20.50;76.80
49148;DHT22;41980;45.550;12.070;2022-09-09T21:12:03;20.40;76.50
49148;DHT22;41980;45.550;12.070;2022-09-09T21:18:05;20.40;76.40
49148;DHT22;41980;45.550;12.070;2022-09-09T21:24:08;20.40;76.60
49148;DHT22;41980;45.550;12.070;2022-09-09T21:30:12;20.40;76.50
49148;DHT22;41980;45.550;12.070;2022-09-09T21:36:14;20.30;76.70
49148;DHT22;41980;45.550;12.070;2022-09-09T21:42:17;20.20;76.50
49148;DHT22;41980;45.550;12.070;2022-09-09T21:48:19;20.10;76.70
49148;DHT22;41980;45.550;12.070;2022-09-09T21:54:22;20.10;76.70
49148;DHT22;41980;45.550;12.070;2022-09-09T22:00:24;20.00;76.80
49148;DHT22;41980;45.550;12.070;2022-09-09T22:06:26;20.00;77.70
49148;DHT22;41980;45.550;12.070;2022-09-09T22:12:29;20.10;77.80
49148;DHT22;41980;45.550;12.070;2022-09-09T22:18:31;20.10;76.80
49148;DHT22;41980;45.550;12.070;2022-09-09T22:24:35;20.20;76.60
49148;DHT22;41980;45.550;12.070;2022-09-09T22:30:39;20.20;76.60
49148;DHT22;41980;45.550;12.070;2022-09-09T22:36:42;20.30;76.10
49148;DHT22;41980;45.550;12.070;2022-09-09T22:42:44;20.40;76.10
49148;DHT22;41980;45.550;12.070;2022-09-09T22:48:46;20.40;76.20
49148;DHT22;41980;45.550;12.070;2022-09-09T22:54:48;20.40;76.00
49148;DHT22;41980;45.550;12.070;2022-09-09T23:00:51;20.30;76.30
49148;DHT22;41980;45.550;12.070;2022-09-09T23:06:53;20.30;76.20
49148;DHT22;41980;45.550;12.070;2022-09-09T23:12:55;20.30;76.40
49148;DHT22;41980;45.550;12.070;2022-09-09T23:18:59;20.40;76.10
49148;DHT22;41980;45.550;12.070;2022-09-09T23:25:02;20.40;76.00
49148;DHT22;41980;45.550;12.070;2022-09-09T23:31:09;20.40;75.80
49148;DHT22;41980;45.550;12.070;2022-09-09T23:37:11;20.40;75.80
49148;DHT22;41980;45.550;12.070;2022-09-09T23:43:13;20.30;76.20
49148;DHT22;41980;45.550;12.070;2022-09-09T23:49:15;20.40;76.00
49148;DHT22;41980;45.550;12.070;2022-09-09T23:55:17;20.40;76.00
